createdAt,value
2015-05-06T03:42:18.997Z,100662
2015-05-06T03:42:37.328Z,100661
2015-05-06T03:42:55.656Z,100653
2015-05-06T03:43:13.953Z,100658
2015-05-06T03:43:32.267Z,100663
2015-05-06T03:43:50.596Z,100663
2015-05-06T03:44:08.939Z,100660
2015-05-06T03:44:27.236Z,100660
2015-05-06T03:44:45.535Z,100660
2015-05-06T03:45:03.894Z,100666
2015-05-06T03:45:22.223Z,100660
2015-05-06T03:45:40.553Z,100655
2015-05-06T03:45:58.896Z,100669
2015-05-06T03:46:17.271Z,100672
2015-05-06T03:46:35.603Z,100661
2015-05-06T03:46:53.915Z,100667
2015-05-06T03:47:12.243Z,100667
2015-05-06T03:47:30.571Z,100658
2015-05-06T03:47:48.886Z,100667
2015-05-06T03:48:07.214Z,100670
2015-05-06T03:48:25.558Z,100654
2015-05-06T03:48:43.858Z,100676
2015-05-06T03:49:02.186Z,100676
2015-05-06T03:49:20.654Z,100667
2015-05-06T03:49:38.952Z,100670
2015-05-06T03:49:57.296Z,100667
2015-05-06T03:50:15.593Z,100673
2015-05-06T03:50:33.921Z,100662
2015-05-06T03:50:52.252Z,100676
2015-05-06T03:51:10.580Z,100676
2015-05-06T03:51:28.908Z,100665
2015-05-06T03:51:47.240Z,100668
2015-05-06T03:52:05.583Z,100667
2015-05-06T03:52:23.911Z,100673
2015-05-06T03:52:42.241Z,100682
2015-05-06T03:53:00.584Z,100667
2015-05-06T03:53:18.897Z,100664
2015-05-06T03:53:37.225Z,100672
2015-05-06T03:53:55.556Z,100670
2015-05-06T03:54:13.853Z,100670
2015-05-06T03:54:32.197Z,100667
2015-05-06T03:54:50.509Z,100673
2015-05-06T03:55:08.981Z,100679
2015-05-06T03:55:27.340Z,100664
2015-05-06T03:55:45.668Z,100664
2015-05-06T03:56:03.999Z,100673
2015-05-06T03:56:22.311Z,100664
2015-05-06T03:56:40.655Z,100665
2015-05-06T03:56:58.999Z,100665
2015-05-06T03:57:17.314Z,100662
2015-05-06T03:57:35.658Z,100656
2015-05-06T03:57:53.986Z,100659
2015-05-06T03:58:12.317Z,100654
2015-05-06T03:58:30.614Z,100668
2015-05-06T03:58:48.926Z,100651
2015-05-06T03:59:07.239Z,100659
2015-05-06T03:59:25.585Z,100656
2015-05-06T03:59:43.897Z,100654
2015-05-06T04:00:02.225Z,100654
2015-05-06T04:00:20.555Z,100654
2015-05-06T04:00:38.884Z,100654
2015-05-06T04:00:57.227Z,100656
2015-05-06T04:01:15.526Z,100656
2015-05-06T04:01:33.854Z,100656
2015-05-06T04:01:52.182Z,100659
2015-05-06T04:02:10.511Z,100658
2015-05-06T04:02:28.842Z,100667
2015-05-06T04:02:47.170Z,100658
2015-05-06T04:03:05.607Z,100655
2015-05-06T04:03:24.563Z,100657
2015-05-06T04:03:43.329Z,100660
2015-05-06T04:04:01.657Z,100653
2015-05-06T04:04:20.034Z,100669
2015-05-06T04:04:38.362Z,100658
2015-05-06T04:04:56.722Z,100669
2015-05-06T04:05:15.050Z,100658
2015-05-06T04:05:33.239Z,100655
2015-05-06T04:05:51.583Z,100655
2015-05-06T04:06:09.942Z,100661
2015-05-06T04:06:28.319Z,100656
2015-05-06T04:06:46.616Z,100661
2015-05-06T04:07:04.960Z,100658
2015-05-06T04:07:23.276Z,100664
2015-05-06T04:07:41.619Z,100658
2015-05-06T04:07:59.963Z,100661
2015-05-06T04:08:18.260Z,100664
2015-05-06T04:08:36.590Z,100664
2015-05-06T04:08:54.918Z,100659
2015-05-06T04:09:13.246Z,100664
2015-05-06T04:09:31.592Z,100667
2015-05-06T04:09:49.905Z,100670
2015-05-06T04:10:08.217Z,100673
2015-05-06T04:10:26.548Z,100673
2015-05-06T04:10:44.892Z,100667
2015-05-06T04:11:03.220Z,100665
2015-05-06T04:11:21.564Z,100670
2015-05-06T04:11:39.894Z,100673
2015-05-06T04:11:58.222Z,100673
2015-05-06T04:12:16.550Z,100673
2015-05-06T04:12:34.880Z,100670
2015-05-06T04:12:53.208Z,100679
2015-05-06T04:13:11.505Z,100688
2015-05-06T04:13:29.835Z,100670
2015-05-06T04:13:48.179Z,100673
2015-05-06T04:14:06.351Z,100676
2015-05-06T04:14:24.039Z,100676
2015-05-06T04:14:42.370Z,100673
2015-05-06T04:15:00.698Z,100682
2015-05-06T04:15:19.026Z,100676
2015-05-06T04:15:37.356Z,100673
2015-05-06T04:15:55.653Z,100667
2015-05-06T04:16:13.981Z,100672
2015-05-06T04:16:32.312Z,100669
2015-05-06T04:16:50.656Z,100664
2015-05-06T04:17:09.000Z,100666
2015-05-06T04:17:27.314Z,100663
2015-05-06T04:17:45.658Z,100669
2015-05-06T04:18:03.986Z,100663
2015-05-06T04:18:22.330Z,100672
2015-05-06T04:18:40.661Z,100669
2015-05-06T04:18:58.973Z,100666
2015-05-06T04:19:17.302Z,100672
2015-05-06T04:19:35.616Z,100672
2015-05-06T04:19:53.944Z,100673
2015-05-06T04:20:12.272Z,100664
2015-05-06T04:20:30.600Z,100676
2015-05-06T04:20:48.946Z,100661
2015-05-06T04:21:07.274Z,100667
2015-05-06T04:21:25.665Z,100667
2015-05-06T04:21:43.996Z,100673
2015-05-06T04:22:02.324Z,100682
2015-05-06T04:22:20.652Z,100676
2015-05-06T04:22:38.982Z,100670
2015-05-06T04:22:57.311Z,100673
2015-05-06T04:23:15.670Z,100676
2015-05-06T04:23:33.998Z,100667
2015-05-06T04:23:52.297Z,100670
2015-05-06T04:24:10.625Z,100665
2015-05-06T04:24:28.922Z,100673
2015-05-06T04:24:47.253Z,100673
2015-05-06T04:25:05.566Z,100662
2015-05-06T04:25:23.894Z,100673
2015-05-06T04:25:42.222Z,100676
2015-05-06T04:26:00.536Z,100673
2015-05-06T04:26:18.849Z,100673
2015-05-06T04:26:37.193Z,100670
2015-05-06T04:26:55.507Z,100665
2015-05-06T04:27:13.851Z,100676
2015-05-06T04:27:32.179Z,100673
2015-05-06T04:27:50.804Z,100679
2015-05-06T04:28:09.104Z,100665
2015-05-06T04:28:27.448Z,100682
2015-05-06T04:28:45.776Z,100685
2015-05-06T04:29:04.138Z,100673
2015-05-06T04:29:22.482Z,100679
2015-05-06T04:29:40.794Z,100679
2015-05-06T04:29:59.091Z,100679
2015-05-06T04:30:17.421Z,100687
2015-05-06T04:30:35.765Z,100676
2015-05-06T04:30:54.093Z,100684
2015-05-06T04:31:12.439Z,100676
2015-05-06T04:31:30.751Z,100681
2015-05-06T04:31:49.095Z,100684
2015-05-06T04:32:06.817Z,100672
2015-05-06T04:32:25.145Z,100675
2015-05-06T04:32:43.473Z,100675
2015-05-06T04:33:01.848Z,100667
2015-05-06T04:33:20.178Z,100678
2015-05-06T04:33:38.491Z,100673
2015-05-06T04:33:56.850Z,100673
2015-05-06T04:34:15.165Z,100676
2015-05-06T04:34:33.493Z,100679
2015-05-06T04:34:51.821Z,100687
2015-05-06T04:35:10.167Z,100685
2015-05-06T04:35:28.495Z,100682
2015-05-06T04:35:46.823Z,100682
2015-05-06T04:36:05.151Z,100682
2015-05-06T04:36:23.482Z,100687
2015-05-06T04:36:41.795Z,100684
2015-05-06T04:37:00.138Z,100686
2015-05-06T04:37:18.469Z,100680
2015-05-06T04:37:36.797Z,100686
2015-05-06T04:37:55.125Z,100680
2015-05-06T04:38:13.440Z,100691
2015-05-06T04:38:31.768Z,100683
2015-05-06T04:38:50.112Z,100680
2015-05-06T04:39:08.456Z,100688
2015-05-06T04:39:26.770Z,100685
2015-05-06T04:39:45.099Z,100682
2015-05-06T04:40:03.458Z,100682
2015-05-06T04:40:21.772Z,100679
2015-05-06T04:40:40.069Z,100670
2015-05-06T04:40:58.382Z,100679
2015-05-06T04:41:16.728Z,100676
2015-05-06T04:41:35.056Z,100682
2015-05-06T04:41:53.384Z,100677
2015-05-06T04:42:11.696Z,100668
2015-05-06T04:42:30.027Z,100680
2015-05-06T04:42:48.356Z,100660
2015-05-06T04:43:06.684Z,100663
2015-05-06T04:43:25.030Z,100660
2015-05-06T04:43:43.359Z,100666
2015-05-06T04:44:01.749Z,100669
2015-05-06T04:44:20.111Z,100669
2015-05-06T04:44:38.439Z,100669
2015-05-06T04:44:56.767Z,100664
2015-05-06T04:45:15.095Z,100663
2015-05-06T04:45:33.425Z,100678
2015-05-06T04:45:51.769Z,100666
2015-05-06T04:46:10.113Z,100672
2015-05-06T04:46:28.428Z,100664
2015-05-06T04:46:46.741Z,100661
2015-05-06T04:47:05.069Z,100664
2015-05-06T04:47:23.399Z,100661
2015-05-06T04:47:41.711Z,100669
2015-05-06T04:48:00.071Z,100667
2015-05-06T04:48:18.336Z,100664
2015-05-06T04:48:36.635Z,100661
2015-05-06T04:48:54.963Z,100657
2015-05-06T04:49:13.291Z,100666
2015-05-06T04:49:31.623Z,100666
2015-05-06T04:49:49.966Z,100666
2015-05-06T04:50:08.279Z,100653
2015-05-06T04:50:26.593Z,100666
2015-05-06T04:50:44.921Z,100655
2015-05-06T04:51:03.250Z,100661
2015-05-06T04:51:21.578Z,100655
2015-05-06T04:51:39.987Z,100666
2015-05-06T04:51:58.299Z,100650
2015-05-06T04:52:16.612Z,100661
2015-05-06T04:52:34.941Z,100655
2015-05-06T04:52:53.269Z,100645
2015-05-06T04:53:11.582Z,100661
2015-05-06T04:53:29.928Z,100661
2015-05-06T04:53:48.257Z,100658
2015-05-06T04:54:06.600Z,100650
2015-05-06T04:54:24.928Z,100650
2015-05-06T04:54:43.260Z,100655
2015-05-06T04:55:01.588Z,100655
2015-05-06T04:55:19.916Z,100644
2015-05-06T04:55:38.260Z,100649
2015-05-06T04:55:56.558Z,100646
2015-05-06T04:56:14.887Z,100641
2015-05-06T04:56:33.262Z,100638
2015-05-06T04:56:51.606Z,100635
2015-05-06T04:57:09.918Z,100643
2015-05-06T04:57:28.215Z,100641
2015-05-06T04:57:46.543Z,100641
2015-05-06T04:58:04.949Z,100632
2015-05-06T04:58:23.293Z,100635
2015-05-06T04:58:41.621Z,100641
2015-05-06T04:58:59.310Z,100636
2015-05-06T04:59:17.622Z,100641
2015-05-06T04:59:35.935Z,100638
2015-05-06T04:59:54.263Z,100638
2015-05-06T05:00:12.621Z,100641
2015-05-06T05:00:30.934Z,100641
2015-05-06T05:00:49.231Z,100641
2015-05-06T05:01:06.916Z,100638
2015-05-06T05:01:25.228Z,100638
2015-05-06T05:01:43.572Z,100655
2015-05-06T05:02:01.892Z,100636
2015-05-06T05:02:20.221Z,100635
2015-05-06T05:02:38.533Z,100647
2015-05-06T05:02:56.846Z,100647
2015-05-06T05:03:15.181Z,100644
2015-05-06T05:03:33.509Z,100644
2015-05-06T05:03:51.837Z,100650
2015-05-06T05:04:10.203Z,100641
2015-05-06T05:04:28.516Z,100655
2015-05-06T05:04:46.844Z,100647
2015-05-06T05:05:05.162Z,100663
2015-05-06T05:05:23.491Z,100655
2015-05-06T05:05:41.850Z,100666
2015-05-06T05:06:00.194Z,100663
2015-05-06T05:06:18.512Z,100663
2015-05-06T05:06:36.809Z,100666
2015-05-06T05:06:55.137Z,100672
2015-05-06T05:07:13.486Z,100669
2015-05-06T05:07:31.830Z,100672
2015-05-06T05:07:50.127Z,100669
2015-05-06T05:08:08.552Z,100675
2015-05-06T05:08:26.818Z,100680
2015-05-06T05:08:45.131Z,100680
2015-05-06T05:09:03.552Z,100679
2015-05-06T05:09:21.886Z,100682
2015-05-06T05:09:40.214Z,100685
2015-05-06T05:09:58.542Z,100682
2015-05-06T05:10:16.858Z,100670
2015-05-06T05:10:35.155Z,100667
2015-05-06T05:10:53.499Z,100668
2015-05-06T05:11:11.815Z,100673
2015-05-06T05:11:30.144Z,100679
2015-05-06T05:11:48.456Z,100682
2015-05-06T05:12:06.800Z,100674
2015-05-06T05:12:25.146Z,100677
2015-05-06T05:12:43.474Z,100677
2015-05-06T05:13:01.786Z,100671
2015-05-06T05:13:20.102Z,100671
2015-05-06T05:13:38.430Z,100680
2015-05-06T05:13:56.774Z,100680
2015-05-06T05:14:15.105Z,100689
2015-05-06T05:14:33.464Z,100680
2015-05-06T05:14:51.792Z,100680
2015-05-06T05:15:10.108Z,100677
2015-05-06T05:15:28.436Z,100680
2015-05-06T05:15:46.764Z,100686
2015-05-06T05:16:05.108Z,100680
2015-05-06T05:16:23.486Z,100688
2015-05-06T05:16:41.798Z,100688
2015-05-06T05:17:00.126Z,100683
2015-05-06T05:17:18.456Z,100683
2015-05-06T05:17:36.816Z,100685
2015-05-06T05:17:55.097Z,100677
2015-05-06T05:18:13.410Z,100682
2015-05-06T05:18:31.725Z,100683
2015-05-06T05:18:50.100Z,100677
2015-05-06T05:19:08.413Z,100663
2015-05-06T05:19:26.728Z,100671
2015-05-06T05:19:45.072Z,100666
2015-05-06T05:20:03.400Z,100666
2015-05-06T05:20:21.712Z,100669
2015-05-06T05:20:40.090Z,100672
2015-05-06T05:20:58.387Z,100669
2015-05-06T05:21:16.715Z,100666
2015-05-06T05:21:35.030Z,100663
2015-05-06T05:21:53.342Z,100666
2015-05-06T05:22:11.671Z,100675
2015-05-06T05:22:29.983Z,100675
2015-05-06T05:22:48.377Z,100681
2015-05-06T05:23:06.720Z,100690
2015-05-06T05:23:25.064Z,100675
2015-05-06T05:23:43.379Z,100681
2015-05-06T05:24:01.722Z,100675
2015-05-06T05:24:20.035Z,100678
2015-05-06T05:24:38.366Z,100681
2015-05-06T05:24:56.679Z,100687
2015-05-06T05:25:15.038Z,100681
2015-05-06T05:25:33.366Z,100684
2015-05-06T05:25:51.696Z,100675
2015-05-06T05:26:10.040Z,100696
2015-05-06T05:26:28.368Z,100687
2015-05-06T05:26:46.698Z,100687
2015-05-06T05:27:05.042Z,100693
2015-05-06T05:27:23.370Z,100696
2015-05-06T05:27:41.686Z,100693
2015-05-06T05:27:59.998Z,100696
2015-05-06T05:28:18.404Z,100684
2015-05-06T05:28:36.686Z,100693
2015-05-06T05:28:55.000Z,100687
2015-05-06T05:29:13.391Z,100687
2015-05-06T05:29:31.719Z,100687
2015-05-06T05:29:50.112Z,100687
2015-05-06T05:30:08.456Z,100687
2015-05-06T05:30:26.784Z,100693
2015-05-06T05:30:45.098Z,100696
2015-05-06T05:31:03.410Z,100690
2015-05-06T05:31:21.754Z,100696
2015-05-06T05:31:40.082Z,100682
2015-05-06T05:31:58.398Z,100684
2015-05-06T05:32:16.741Z,100690
2015-05-06T05:32:35.054Z,100696
2015-05-06T05:32:53.368Z,100685
2015-05-06T05:33:11.697Z,100687
2015-05-06T05:33:30.040Z,100693
2015-05-06T05:33:48.370Z,100690
2015-05-06T05:34:06.714Z,100690
2015-05-06T05:34:25.042Z,100693
2015-05-06T05:34:43.355Z,100687
2015-05-06T05:35:01.702Z,100679
2015-05-06T05:35:20.030Z,100688
2015-05-06T05:35:38.186Z,100696
2015-05-06T05:35:56.610Z,100693
2015-05-06T05:36:14.922Z,100685
2015-05-06T05:36:33.266Z,100682
2015-05-06T05:36:51.628Z,100685
2015-05-06T05:37:09.957Z,100696
2015-05-06T05:37:28.316Z,100690
2015-05-06T05:37:46.675Z,100688
2015-05-06T05:38:05.005Z,100688
2015-05-06T05:38:23.334Z,100688
2015-05-06T05:38:41.662Z,100682
2015-05-06T05:38:59.977Z,100693
2015-05-06T05:39:17.680Z,100693
2015-05-06T05:39:36.008Z,100691
2015-05-06T05:39:54.338Z,100685
2015-05-06T05:40:12.666Z,100679
2015-05-06T05:40:30.994Z,100688
2015-05-06T05:40:49.338Z,100696
2015-05-06T05:41:07.653Z,100688
2015-05-06T05:41:25.997Z,100682
2015-05-06T05:41:44.341Z,100682
2015-05-06T05:42:02.671Z,100688
2015-05-06T05:42:20.999Z,100679
2015-05-06T05:42:39.311Z,100676
2015-05-06T05:42:57.627Z,100685
2015-05-06T05:43:15.955Z,100679
2015-05-06T05:43:34.299Z,100688
2015-05-06T05:43:52.627Z,100691
2015-05-06T05:44:10.941Z,100679
2015-05-06T05:44:29.269Z,100691
2015-05-06T05:44:47.566Z,100685
2015-05-06T05:45:05.913Z,100691
2015-05-06T05:45:24.257Z,100694
2015-05-06T05:45:42.569Z,100688
2015-05-06T05:46:00.897Z,100688
2015-05-06T05:46:19.228Z,100679
2015-05-06T05:46:37.571Z,100679
2015-05-06T05:46:55.884Z,100685
2015-05-06T05:47:14.230Z,100682
2015-05-06T05:47:32.542Z,100679
2015-05-06T05:47:50.855Z,100682
2015-05-06T05:48:09.183Z,100671
2015-05-06T05:48:27.498Z,100674
2015-05-06T05:48:45.873Z,100677
2015-05-06T05:49:04.217Z,100682
2015-05-06T05:49:22.548Z,100679
2015-05-06T05:49:40.861Z,100682
2015-05-06T05:49:59.204Z,100674
2015-05-06T05:50:17.501Z,100679
2015-05-06T05:50:35.816Z,100671
2015-05-06T05:50:54.144Z,100668
2015-05-06T05:51:12.456Z,100674
2015-05-06T05:51:30.833Z,100668
2015-05-06T05:51:49.099Z,100677
2015-05-06T05:52:07.427Z,100671
2015-05-06T05:52:25.757Z,100674
2015-05-06T05:52:44.101Z,100665
2015-05-06T05:53:02.445Z,100680
2015-05-06T05:53:20.757Z,100677
2015-05-06T05:53:39.087Z,100671
2015-05-06T05:53:57.478Z,100674
2015-05-06T05:54:15.790Z,100688
2015-05-06T05:54:34.122Z,100674
2015-05-06T05:54:52.465Z,100683
2015-05-06T05:55:10.825Z,100683
2015-05-06T05:55:29.124Z,100680
2015-05-06T05:55:47.452Z,100683
2015-05-06T05:56:05.780Z,100668
2015-05-06T05:56:24.092Z,100680
2015-05-06T05:56:42.439Z,100683
2015-05-06T05:57:00.783Z,100683
2015-05-06T05:57:19.111Z,100694
2015-05-06T05:57:37.441Z,100680
2015-05-06T05:57:55.769Z,100680
2015-05-06T05:58:14.097Z,100685
2015-05-06T05:58:32.444Z,100691
2015-05-06T05:58:50.772Z,100685
2015-05-06T05:59:09.100Z,100674
2015-05-06T05:59:27.444Z,100674
2015-05-06T05:59:45.774Z,100683
2015-05-06T06:00:04.102Z,100674
2015-05-06T06:00:22.430Z,100680
2015-05-06T06:00:40.777Z,100691
2015-05-06T06:00:59.121Z,100685
2015-05-06T06:01:17.449Z,100685
2015-05-06T06:01:35.795Z,100688
2015-05-06T06:01:54.092Z,100680
2015-05-06T06:02:12.420Z,100688
2015-05-06T06:02:30.750Z,100685
2015-05-06T06:02:49.062Z,100694
2015-05-06T06:03:07.391Z,100688
2015-05-06T06:03:25.734Z,100685
2015-05-06T06:03:44.064Z,100688
2015-05-06T06:04:01.752Z,100683
2015-05-06T06:04:20.111Z,100686
2015-05-06T06:04:38.411Z,100686
2015-05-06T06:04:56.739Z,100686
2015-05-06T06:05:15.067Z,100686
2015-05-06T06:05:33.396Z,100691
2015-05-06T06:05:51.757Z,100686
2015-05-06T06:06:10.085Z,100683
2015-05-06T06:06:28.429Z,100691
2015-05-06T06:06:46.760Z,100691
2015-05-06T06:07:05.088Z,100680
2015-05-06T06:07:23.432Z,100691
2015-05-06T06:07:41.745Z,100685
2015-05-06T06:08:00.105Z,100688
2015-05-06T06:08:18.417Z,100686
2015-05-06T06:08:36.761Z,100688
2015-05-06T06:08:55.061Z,100677
2015-05-06T06:09:13.389Z,100677
2015-05-06T06:09:31.701Z,100683
2015-05-06T06:09:50.030Z,100685
2015-05-06T06:10:08.486Z,100688
2015-05-06T06:10:26.798Z,100688
2015-05-06T06:10:45.126Z,100685
2015-05-06T06:11:03.456Z,100688
2015-05-06T06:11:21.800Z,100691
2015-05-06T06:11:40.097Z,100685
2015-05-06T06:11:58.394Z,100688
2015-05-06T06:12:16.709Z,100688
2015-05-06T06:12:35.022Z,100694
2015-05-06T06:12:53.334Z,100700
2015-05-06T06:13:11.665Z,100694
2015-05-06T06:13:29.993Z,100697
2015-05-06T06:13:48.305Z,100688
2015-05-06T06:14:06.618Z,100691
2015-05-06T06:14:24.963Z,100694
2015-05-06T06:14:43.292Z,100706
2015-05-06T06:15:01.604Z,100697
2015-05-06T06:15:19.921Z,100694
2015-05-06T06:15:38.249Z,100706
2015-05-06T06:15:56.561Z,100700
2015-05-06T06:16:14.889Z,100703
2015-05-06T06:16:33.187Z,100706
2015-05-06T06:16:51.547Z,100706
2015-05-06T06:17:09.875Z,100697
2015-05-06T06:17:28.206Z,100700
2015-05-06T06:17:46.550Z,100709
2015-05-06T06:18:04.878Z,100697
2015-05-06T06:18:23.223Z,100700
2015-05-06T06:18:41.536Z,100711
2015-05-06T06:18:59.848Z,100709
2015-05-06T06:19:18.192Z,100706
2015-05-06T06:19:36.508Z,100711
2015-05-06T06:19:54.867Z,100709
2015-05-06T06:20:13.211Z,100697
2015-05-06T06:20:31.541Z,100703
2015-05-06T06:20:49.853Z,100706
2015-05-06T06:21:08.166Z,100703
2015-05-06T06:21:26.575Z,100709
2015-05-06T06:21:44.872Z,100703
2015-05-06T06:22:03.169Z,100711
2015-05-06T06:22:21.481Z,100714
2015-05-06T06:22:39.858Z,100703
2015-05-06T06:22:58.187Z,100703
2015-05-06T06:23:16.515Z,100703
2015-05-06T06:23:34.845Z,100694
2015-05-06T06:23:53.173Z,100717
2015-05-06T06:24:11.485Z,100706
2015-05-06T06:24:29.894Z,100706
2015-05-06T06:24:48.222Z,100711
2015-05-06T06:25:06.534Z,100714
2015-05-06T06:25:24.878Z,100709
2015-05-06T06:25:43.209Z,100711
2015-05-06T06:26:01.522Z,100711
2015-05-06T06:26:19.881Z,100709
2015-05-06T06:26:38.197Z,100706
2015-05-06T06:26:56.556Z,100717
2015-05-06T06:27:14.853Z,100709
2015-05-06T06:27:33.182Z,100703
2015-05-06T06:27:51.510Z,100709
2015-05-06T06:28:09.838Z,100711
2015-05-06T06:28:28.166Z,100709
2015-05-06T06:28:46.513Z,100703
2015-05-06T06:29:04.826Z,100703
2015-05-06T06:29:23.169Z,100700
2015-05-06T06:29:41.484Z,100700
2015-05-06T06:29:59.874Z,100706
2015-05-06T06:30:18.203Z,100700
2015-05-06T06:30:36.533Z,100706
2015-05-06T06:30:54.861Z,100700
2015-05-06T06:31:13.205Z,100697
2015-05-06T06:31:31.533Z,100709
2015-05-06T06:31:49.847Z,100709
2015-05-06T06:32:08.191Z,100703
2015-05-06T06:32:26.519Z,100720
2015-05-06T06:32:44.881Z,100706
2015-05-06T06:33:03.210Z,100700
2015-05-06T06:33:21.553Z,100706
2015-05-06T06:33:39.900Z,100703
2015-05-06T06:33:58.197Z,100712
2015-05-06T06:34:16.525Z,100700
2015-05-06T06:34:34.853Z,100700
2015-05-06T06:34:53.183Z,100694
2015-05-06T06:35:11.543Z,100686
2015-05-06T06:35:29.886Z,100689
2015-05-06T06:35:48.185Z,100692
2015-05-06T06:36:06.529Z,100677
2015-05-06T06:36:24.842Z,100680
2015-05-06T06:36:43.173Z,100674
2015-05-06T06:37:01.516Z,100674
2015-05-06T06:37:19.829Z,100677
2015-05-06T06:37:38.173Z,100677
2015-05-06T06:37:56.487Z,100675
2015-05-06T06:38:14.878Z,100675
2015-05-06T06:38:33.222Z,100680
2015-05-06T06:38:51.534Z,100672
2015-05-06T06:39:09.881Z,100672
2015-05-06T06:39:28.209Z,100675
2015-05-06T06:39:46.600Z,100675
2015-05-06T06:40:04.977Z,100677
2015-05-06T06:40:23.305Z,100675
2015-05-06T06:40:41.648Z,100680
2015-05-06T06:40:59.961Z,100680
2015-05-06T06:41:18.291Z,100675
2015-05-06T06:41:36.619Z,100677
2015-05-06T06:41:54.947Z,100677
2015-05-06T06:42:13.294Z,100675
2015-05-06T06:42:31.622Z,100683
2015-05-06T06:42:49.966Z,100677
2015-05-06T06:43:08.294Z,100686
2015-05-06T06:43:26.624Z,100680
2015-05-06T06:43:44.952Z,100689
2015-05-06T06:44:03.296Z,100686
2015-05-06T06:44:21.627Z,100692
2015-05-06T06:44:39.955Z,100689
2015-05-06T06:44:58.299Z,100689
2015-05-06T06:45:16.627Z,100677
2015-05-06T06:45:34.958Z,100686
2015-05-06T06:45:53.333Z,100675
2015-05-06T06:46:11.661Z,100680
2015-05-06T06:46:29.960Z,100674
2015-05-06T06:46:48.288Z,100680
2015-05-06T06:47:06.601Z,100666
2015-05-06T06:47:24.931Z,100677
2015-05-06T06:47:43.322Z,100669
2015-05-06T06:48:01.619Z,100677
2015-05-06T06:48:19.994Z,100666
2015-05-06T06:48:38.293Z,100674
2015-05-06T06:48:56.622Z,100680
2015-05-06T06:49:14.965Z,100669
2015-05-06T06:49:33.280Z,100663
2015-05-06T06:49:51.577Z,100675
2015-05-06T06:50:09.889Z,100675
2015-05-06T06:50:28.220Z,100669
2015-05-06T06:50:46.564Z,100675
2015-05-06T06:51:04.877Z,100672
2015-05-06T06:51:23.189Z,100672
2015-05-06T06:51:41.534Z,100672
2015-05-06T06:51:59.846Z,100683
2015-05-06T06:52:18.190Z,100672
2015-05-06T06:52:36.506Z,100677
2015-05-06T06:52:54.834Z,100675
2015-05-06T06:53:13.177Z,100675
2015-05-06T06:53:31.509Z,100680
2015-05-06T06:53:49.821Z,100672
2015-05-06T06:54:08.165Z,100678
2015-05-06T06:54:26.462Z,100678
2015-05-06T06:54:44.792Z,100675
2015-05-06T06:55:03.120Z,100680
2015-05-06T06:55:21.495Z,100698
2015-05-06T06:55:39.809Z,100680
2015-05-06T06:55:58.138Z,100683
2015-05-06T06:56:16.466Z,100689
2015-05-06T06:56:34.797Z,100689
2015-05-06T06:56:53.125Z,100695
2015-05-06T06:57:11.469Z,100701
2015-05-06T06:57:29.797Z,100701
2015-05-06T06:57:48.126Z,100689
2015-05-06T06:58:06.454Z,100701
2015-05-06T06:58:24.767Z,100695
2015-05-06T06:58:43.098Z,100706
2015-05-06T06:59:01.426Z,100709
2015-05-06T06:59:19.754Z,100703
2015-05-06T06:59:38.101Z,100701
2015-05-06T06:59:56.444Z,100715
2015-05-06T07:00:14.773Z,100712
2015-05-06T07:00:33.132Z,100712
2015-05-06T07:00:51.431Z,100715
2015-05-06T07:01:09.759Z,100703
2015-05-06T07:01:28.087Z,100706
2015-05-06T07:01:46.417Z,100709
2015-05-06T07:02:04.745Z,100712
2015-05-06T07:02:23.058Z,100726
2015-05-06T07:02:41.388Z,100715
2015-05-06T07:02:59.716Z,100712
2015-05-06T07:03:18.044Z,100715
2015-05-06T07:03:36.357Z,100718
2015-05-06T07:03:54.688Z,100706
2015-05-06T07:04:13.032Z,100712
2015-05-06T07:04:31.344Z,100715
2015-05-06T07:04:49.705Z,100712
2015-05-06T07:05:08.018Z,100721
2015-05-06T07:05:26.502Z,100724
2015-05-06T07:05:44.159Z,100721
2015-05-06T07:06:02.490Z,100721
2015-05-06T07:06:20.818Z,100709
2015-05-06T07:06:39.162Z,100721
2015-05-06T07:06:57.476Z,100715
2015-05-06T07:07:15.914Z,100726
2015-05-06T07:07:33.570Z,100718
2015-05-06T07:07:51.898Z,100724
2015-05-06T07:08:10.213Z,100727
2015-05-06T07:08:28.526Z,100732
2015-05-06T07:08:46.838Z,100732
2015-05-06T07:09:05.200Z,100729
2015-05-06T07:09:23.528Z,100726
2015-05-06T07:09:41.856Z,100726
2015-05-06T07:10:00.169Z,100738
2015-05-06T07:10:18.499Z,100721
2015-05-06T07:10:36.811Z,100732
2015-05-06T07:10:55.155Z,100721
2015-05-06T07:11:13.470Z,100732
2015-05-06T07:11:31.814Z,100724
2015-05-06T07:11:50.127Z,100724
2015-05-06T07:12:08.426Z,100726
2015-05-06T07:12:26.910Z,100721
2015-05-06T07:12:45.238Z,100724
2015-05-06T07:13:03.566Z,100721
2015-05-06T07:13:21.882Z,100724
2015-05-06T07:13:40.241Z,100729
2015-05-06T07:13:58.569Z,100721
2015-05-06T07:14:16.883Z,100726
2015-05-06T07:14:35.226Z,100726
2015-05-06T07:14:53.586Z,100729
2015-05-06T07:15:11.901Z,100732
2015-05-06T07:15:30.229Z,100735
2015-05-06T07:15:48.558Z,100724
2015-05-06T07:16:06.886Z,100726
2015-05-06T07:16:25.185Z,100724
2015-05-06T07:16:43.497Z,100726
2015-05-06T07:17:01.825Z,100726
2015-05-06T07:17:20.155Z,100726
2015-05-06T07:17:38.483Z,100726
2015-05-06T07:17:56.796Z,100729
2015-05-06T07:18:15.096Z,100726
2015-05-06T07:18:33.455Z,100738
2015-05-06T07:18:51.908Z,100718
2015-05-06T07:19:10.283Z,100715
2015-05-06T07:19:28.568Z,100724
2015-05-06T07:19:46.896Z,100721
2015-05-06T07:20:05.208Z,100726
2015-05-06T07:20:23.522Z,100718
2015-05-06T07:20:41.834Z,100715
2015-05-06T07:21:00.194Z,100715
2015-05-06T07:21:18.493Z,100715
2015-05-06T07:21:36.868Z,100709
2015-05-06T07:21:55.197Z,100709
2015-05-06T07:22:13.509Z,100706
2015-05-06T07:22:31.840Z,100712
2015-05-06T07:22:50.168Z,100712
2015-05-06T07:23:08.496Z,100701
2015-05-06T07:23:26.827Z,100712
2015-05-06T07:23:45.155Z,100709
2015-05-06T07:24:03.483Z,100706
2015-05-06T07:24:21.844Z,100706
2015-05-06T07:24:40.157Z,100701
2015-05-06T07:24:57.813Z,100701
2015-05-06T07:25:16.141Z,100701
2015-05-06T07:25:34.487Z,100709
2015-05-06T07:25:52.784Z,100704
2015-05-06T07:26:11.127Z,100701
2015-05-06T07:26:29.459Z,100698
2015-05-06T07:26:47.802Z,100698
2015-05-06T07:27:06.130Z,100701
2015-05-06T07:27:24.461Z,100712
2015-05-06T07:27:42.789Z,100706
2015-05-06T07:28:01.164Z,100701
2015-05-06T07:28:19.492Z,100701
2015-05-06T07:28:37.823Z,100704
2015-05-06T07:28:56.151Z,100698
2015-05-06T07:29:14.510Z,100704
2015-05-06T07:29:32.823Z,100706
2015-05-06T07:29:51.153Z,100698
2015-05-06T07:30:09.466Z,100704
2015-05-06T07:30:27.809Z,100704
2015-05-06T07:30:46.140Z,100704